sensor_id;sensor_type;location;lat;lon;timestamp;temperature;humidity
7192;DHT22;3637;51.494;11.958;2023-04-25T00:00:39;9.40;99.90
7192;DHT22;3637;51.494;11.958;2023-04-25T00:03:41;9.40;99.90
7192;DHT22;3637;51.494;11.958;2023-04-25T00:06:43;9.40;99.90
7192;DHT22;3637;51.494;11.958;2023-04-25T00:09:45;9.50;99.90
7192;DHT22;3637;51.494;11.958;2023-04-25T00:12:47;9.50;99.90
7192;DHT22;3637;51.494;11.958;2023-04-25T00:15:50;9.50;99.90
7192;DHT22;3637;51.494;11.958;2023-04-25T00:18:53;9.40;99.90
7192;DHT22;3637;51.494;11.958;2023-04-25T00:21:55;9.20;99.90
7192;DHT22;3637;51.494;11.958;2023-04-25T00:25:00;9.10;99.90
7192;DHT22;3637;51.494;11.958;2023-04-25T00:28:03;9.00;99.90
7192;DHT22;3637;51.494;11.958;2023-04-25T00:31:07;9.60;99.90
7192;DHT22;3637;51.494;11.958;2023-04-25T00:34:08;9.60;99.90
7192;DHT22;3637;51.494;11.958;2023-04-25T00:37:10;9.00;99.90
7192;DHT22;3637;51.494;11.958;2023-04-25T00:40:13;8.80;99.90
7192;DHT22;3637;51.494;11.958;2023-04-25T00:43:14;8.90;99.90
7192;DHT22;3637;51.494;11.958;2023-04-25T00:46:18;8.80;99.90
7192;DHT22;3637;51.494;11.958;2023-04-25T00:49:22;8.80;99.90
7192;DHT22;3637;51.494;11.958;2023-04-25T00:52:24;8.70;99.90
7192;DHT22;3637;51.494;11.958;2023-04-25T00:55:26;8.70;99.90
7192;DHT22;3637;51.494;11.958;2023-04-25T00:58:27;8.70;99.90
7192;DHT22;3637;51.494;11.958;2023-04-25T01:01:31;8.70;99.90
7192;DHT22;3637;51.494;11.958;2023-04-25T01:04:33;8.60;99.90
7192;DHT22;3637;51.494;11.958;2023-04-25T01:07:35;8.50;99.90
7192;DHT22;3637;51.494;11.958;2023-04-25T01:10:36;9.30;99.90
7192;DHT22;3637;51.494;11.958;2023-04-25T01:13:38;8.40;99.90
7192;DHT22;3637;51.494;11.958;2023-04-25T01:16:42;9.00;99.90
7192;DHT22;3637;51.494;11.958;2023-04-25T01:19:45;8.30;99.90
7192;DHT22;3637;51.494;11.958;2023-04-25T01:22:50;8.80;99.90
7192;DHT22;3637;51.494;11.958;2023-04-25T01:25:52;8.70;99.90
7192;DHT22;3637;51.494;11.958;2023-04-25T01:28:54;8.30;99.90
7192;DHT22;3637;51.494;11.958;2023-04-25T01:31:56;8.70;99.90
7192;DHT22;3637;51.494;11.958;2023-04-25T01:34:59;8.30;99.90
7192;DHT22;3637;51.494;11.958;2023-04-25T01:38:02;8.30;99.90
7192;DHT22;3637;51.494;11.958;2023-04-25T01:41:05;8.50;99.90
7192;DHT22;3637;51.494;11.958;2023-04-25T01:44:07;8.50;99.90
7192;DHT22;3637;51.494;11.958;2023-04-25T01:47:09;8.30;99.90
7192;DHT22;3637;51.494;11.958;2023-04-25T01:50:11;9.20;99.90
7192;DHT22;3637;51.494;11.958;2023-04-25T01:53:14;8.10;99.90
7192;DHT22;3637;51.494;11.958;2023-04-25T01:56:17;8.20;99.90
7192;DHT22;3637;51.494;11.958;2023-04-25T01:59:20;8.00;99.90
7192;DHT22;3637;51.494;11.958;2023-04-25T02:02:22;8.00;99.90
7192;DHT22;3637;51.494;11.958;2023-04-25T02:05:24;8.10;99.90
7192;DHT22;3637;51.494;11.958;2023-04-25T02:08:27;8.10;99.90
7192;DHT22;3637;51.494;11.958;2023-04-25T02:11:30;7.90;99.90
7192;DHT22;3637;51.494;11.958;2023-04-25T02:14:32;7.90;99.90
7192;DHT22;3637;51.494;11.958;2023-04-25T02:17:34;7.80;99.90
7192;DHT22;3637;51.494;11.958;2023-04-25T02:20:36;7.90;99.90
7192;DHT22;3637;51.494;11.958;2023-04-25T02:23:39;7.90;99.90
7192;DHT22;3637;51.494;11.958;2023-04-25T02:26:41;7.90;99.90
7192;DHT22;3637;51.494;11.958;2023-04-25T02:29:43;7.90;99.90
7192;DHT22;3637;51.494;11.958;2023-04-25T02:32:45;8.10;99.90
7192;DHT22;3637;51.494;11.958;2023-04-25T02:35:47;7.80;99.90
7192;DHT22;3637;51.494;11.958;2023-04-25T02:38:50;8.00;99.90
7192;DHT22;3637;51.494;11.958;2023-04-25T02:41:53;8.60;99.90
7192;DHT22;3637;51.494;11.958;2023-04-25T02:44:55;8.60;99.90
7192;DHT22;3637;51.494;11.958;2023-04-25T02:48:00;7.90;99.90
7192;DHT22;3637;51.494;11.958;2023-04-25T02:51:02;8.50;99.90
7192;DHT22;3637;51.494;11.958;2023-04-25T02:54:05;7.90;99.90
7192;DHT22;3637;51.494;11.958;2023-04-25T02:57:08;7.90;99.90
7192;DHT22;3637;51.494;11.958;2023-04-25T03:00:10;7.80;99.90
7192;DHT22;3637;51.494;11.958;2023-04-25T03:03:14;7.80;99.90
7192;DHT22;3637;51.494;11.958;2023-04-25T03:06:18;7.30;99.90
7192;DHT22;3637;51.494;11.958;2023-04-25T03:09:21;8.50;99.90
7192;DHT22;3637;51.494;11.958;2023-04-25T03:12:23;8.00;99.90
7192;DHT22;3637;51.494;11.958;2023-04-25T03:15:25;7.80;99.90
7192;DHT22;3637;51.494;11.958;2023-04-25T03:18:27;8.00;99.90
7192;DHT22;3637;51.494;11.958;2023-04-25T03:21:29;7.80;99.90
7192;DHT22;3637;51.494;11.958;2023-04-25T03:24:33;7.90;99.90
7192;DHT22;3637;51.494;11.958;2023-04-25T03:27:36;7.90;99.90
7192;DHT22;3637;51.494;11.958;2023-04-25T03:30:38;7.50;99.90
7192;DHT22;3637;51.494;11.958;2023-04-25T03:33:40;8.90;99.90
7192;DHT22;3637;51.494;11.958;2023-04-25T03:36:42;7.80;99.90
7192;DHT22;3637;51.494;11.958;2023-04-25T03:39:45;8.70;99.90
7192;DHT22;3637;51.494;11.958;2023-04-25T03:42:47;7.90;99.90
7192;DHT22;3637;51.494;11.958;2023-04-25T03:45:49;7.90;99.90
7192;DHT22;3637;51.494;11.958;2023-04-25T03:48:51;8.60;99.90
7192;DHT22;3637;51.494;11.958;2023-04-25T03:51:52;7.80;99.90
7192;DHT22;3637;51.494;11.958;2023-04-25T03:54:55;7.70;99.90
7192;DHT22;3637;51.494;11.958;2023-04-25T03:57:59;7.70;99.90
7192;DHT22;3637;51.494;11.958;2023-04-25T04:01:03;8.20;99.90
7192;DHT22;3637;51.494;11.958;2023-04-25T04:04:07;7.60;99.90
7192;DHT22;3637;51.494;11.958;2023-04-25T04:07:09;7.60;99.90
7192;DHT22;3637;51.494;11.958;2023-04-25T04:10:13;8.10;99.90
7192;DHT22;3637;51.494;11.958;2023-04-25T04:13:15;8.80;99.90
7192;DHT22;3637;51.494;11.958;2023-04-25T04:16:16;8.70;99.90
7192;DHT22;3637;51.494;11.958;2023-04-25T04:19:19;7.70;99.90
7192;DHT22;3637;51.494;11.958;2023-04-25T04:22:21;7.50;99.90
7192;DHT22;3637;51.494;11.958;2023-04-25T04:25:24;7.90;99.90
7192;DHT22;3637;51.494;11.958;2023-04-25T04:28:26;8.80;99.90
7192;DHT22;3637;51.494;11.958;2023-04-25T04:31:28;7.50;99.90
7192;DHT22;3637;51.494;11.958;2023-04-25T04:34:30;7.50;99.90
7192;DHT22;3637;51.494;11.958;2023-04-25T04:37:32;8.10;99.90
7192;DHT22;3637;51.494;11.958;2023-04-25T04:40:35;7.60;99.90
7192;DHT22;3637;51.494;11.958;2023-04-25T04:43:38;7.60;99.90
7192;DHT22;3637;51.494;11.958;2023-04-25T04:46:40;7.60;99.90
7192;DHT22;3637;51.494;11.958;2023-04-25T04:49:42;8.00;99.90
7192;DHT22;3637;51.494;11.958;2023-04-25T04:52:45;8.50;99.90
7192;DHT22;3637;51.494;11.958;2023-04-25T04:55:48;7.70;99.90
7192;DHT22;3637;51.494;11.958;2023-04-25T04:58:50;7.70;99.90
7192;DHT22;3637;51.494;11.958;2023-04-25T05:01:52;7.80;99.90
7192;DHT22;3637;51.494;11.958;2023-04-25T05:04:56;7.80;99.90
7192;DHT22;3637;51.494;11.958;2023-04-25T05:07:58;7.70;99.90
7192;DHT22;3637;51.494;11.958;2023-04-25T05:11:01;7.70;99.90
7192;DHT22;3637;51.494;11.958;2023-04-25T05:14:03;8.40;99.90
7192;DHT22;3637;51.494;11.958;2023-04-25T05:17:04;7.80;99.90
7192;DHT22;3637;51.494;11.958;2023-04-25T05:20:09;7.90;99.90
7192;DHT22;3637;51.494;11.958;2023-04-25T05:23:11;7.80;99.90
7192;DHT22;3637;51.494;11.958;2023-04-25T05:26:14;8.40;99.90
7192;DHT22;3637;51.494;11.958;2023-04-25T05:29:16;7.90;99.90
7192;DHT22;3637;51.494;11.958;2023-04-25T05:32:18;8.00;99.90
7192;DHT22;3637;51.494;11.958;2023-04-25T05:35:19;8.50;99.90
7192;DHT22;3637;51.494;11.958;2023-04-25T05:38:21;9.50;99.90
7192;DHT22;3637;51.494;11.958;2023-04-25T05:41:24;9.20;99.90
7192;DHT22;3637;51.494;11.958;2023-04-25T05:44:26;8.40;99.90
7192;DHT22;3637;51.494;11.958;2023-04-25T05:47:28;8.00;99.90
7192;DHT22;3637;51.494;11.958;2023-04-25T05:50:30;8.60;99.90
7192;DHT22;3637;51.494;11.958;2023-04-25T05:53:34;9.70;99.90
7192;DHT22;3637;51.494;11.958;2023-04-25T05:56:37;9.30;99.90
7192;DHT22;3637;51.494;11.958;2023-04-25T05:59:39;8.70;99.90
7192;DHT22;3637;51.494;11.958;2023-04-25T06:02:40;8.80;99.90
7192;DHT22;3637;51.494;11.958;2023-04-25T06:05:43;8.80;99.90
7192;DHT22;3637;51.494;11.958;2023-04-25T06:08:45;9.00;99.90
7192;DHT22;3637;51.494;11.958;2023-04-25T06:11:48;8.90;99.90
7192;DHT22;3637;51.494;11.958;2023-04-25T06:14:50;10.10;99.90
7192;DHT22;3637;51.494;11.958;2023-04-25T06:17:51;9.00;99.90
7192;DHT22;3637;51.494;11.958;2023-04-25T06:20:53;9.10;99.90
7192;DHT22;3637;51.494;11.958;2023-04-25T06:23:55;9.20;99.90
7192;DHT22;3637;51.494;11.958;2023-04-25T06:26:59;9.30;99.90
7192;DHT22;3637;51.494;11.958;2023-04-25T06:30:01;8.80;99.90
7192;DHT22;3637;51.494;11.958;2023-04-25T06:33:03;9.70;99.90
7192;DHT22;3637;51.494;11.958;2023-04-25T06:36:05;9.60;99.90
7192;DHT22;3637;51.494;11.958;2023-04-25T06:39:07;9.20;99.90
7192;DHT22;3637;51.494;11.958;2023-04-25T06:42:10;9.80;99.90
7192;DHT22;3637;51.494;11.958;2023-04-25T06:45:12;9.30;99.90
7192;DHT22;3637;51.494;11.958;2023-04-25T06:48:14;9.40;99.90
7192;DHT22;3637;51.494;11.958;2023-04-25T06:51:16;9.40;99.90
7192;DHT22;3637;51.494;11.958;2023-04-25T06:54:18;9.30;99.90
7192;DHT22;3637;51.494;11.958;2023-04-25T06:57:21;9.20;99.90
7192;DHT22;3637;51.494;11.958;2023-04-25T07:00:23;9.60;99.90
7192;DHT22;3637;51.494;11.958;2023-04-25T07:03:28;10.00;99.90
7192;DHT22;3637;51.494;11.958;2023-04-25T07:06:30;8.90;99.90
7192;DHT22;3637;51.494;11.958;2023-04-25T07:09:32;8.60;99.90
7192;DHT22;3637;51.494;11.958;2023-04-25T07:12:35;8.60;99.90
7192;DHT22;3637;51.494;11.958;2023-04-25T07:15:37;8.60;99.90
7192;DHT22;3637;51.494;11.958;2023-04-25T07:18:39;8.80;99.90
7192;DHT22;3637;51.494;11.958;2023-04-25T07:21:41;8.50;99.90
7192;DHT22;3637;51.494;11.958;2023-04-25T07:24:43;8.60;99.90
7192;DHT22;3637;51.494;11.958;2023-04-25T07:27:49;8.80;99.90
7192;DHT22;3637;51.494;11.958;2023-04-25T07:30:52;9.30;99.90
7192;DHT22;3637;51.494;11.958;2023-04-25T07:33:53;9.00;99.90
7192;DHT22;3637;51.494;11.958;2023-04-25T07:36:55;9.10;99.90
7192;DHT22;3637;51.494;11.958;2023-04-25T07:39:59;9.20;99.90
7192;DHT22;3637;51.494;11.958;2023-04-25T07:43:05;10.40;99.90
7192;DHT22;3637;51.494;11.958;2023-04-25T07:46:07;9.40;99.90
7192;DHT22;3637;51.494;11.958;2023-04-25T07:49:09;9.50;99.90
7192;DHT22;3637;51.494;11.958;2023-04-25T07:52:10;9.50;99.90
7192;DHT22;3637;51.494;11.958;2023-04-25T07:55:13;9.60;99.90
7192;DHT22;3637;51.494;11.958;2023-04-25T07:58:16;9.20;99.90
7192;DHT22;3637;51.494;11.958;2023-04-25T08:01:21;9.50;99.90
7192;DHT22;3637;51.494;11.958;2023-04-25T08:04:23;9.30;99.90
7192;DHT22;3637;51.494;11.958;2023-04-25T08:07:25;9.80;99.90
7192;DHT22;3637;51.494;11.958;2023-04-25T08:10:28;9.20;99.90
7192;DHT22;3637;51.494;11.958;2023-04-25T08:13:31;9.30;99.90
7192;DHT22;3637;51.494;11.958;2023-04-25T08:16:33;10.30;99.90
7192;DHT22;3637;51.494;11.958;2023-04-25T08:19:35;9.70;99.90
7192;DHT22;3637;51.494;11.958;2023-04-25T08:22:38;9.60;99.90
7192;DHT22;3637;51.494;11.958;2023-04-25T08:25:40;9.60;99.90
7192;DHT22;3637;51.494;11.958;2023-04-25T08:28:43;10.20;99.90
7192;DHT22;3637;51.494;11.958;2023-04-25T08:31:45;10.10;99.90
7192;DHT22;3637;51.494;11.958;2023-04-25T08:34:47;9.50;99.90
7192;DHT22;3637;51.494;11.958;2023-04-25T08:37:49;10.10;99.90
7192;DHT22;3637;51.494;11.958;2023-04-25T08:40:51;9.50;99.90
7192;DHT22;3637;51.494;11.958;2023-04-25T08:43:56;9.50;99.90
7192;DHT22;3637;51.494;11.958;2023-04-25T08:47:00;9.50;99.90
7192;DHT22;3637;51.494;11.958;2023-04-25T08:50:04;9.30;99.90
7192;DHT22;3637;51.494;11.958;2023-04-25T08:53:08;9.30;99.90
7192;DHT22;3637;51.494;11.958;2023-04-25T08:56:16;9.30;99.90
7192;DHT22;3637;51.494;11.958;2023-04-25T08:59:19;9.20;99.90
7192;DHT22;3637;51.494;11.958;2023-04-25T09:02:24;9.00;99.90
7192;DHT22;3637;51.494;11.958;2023-04-25T09:05:26;9.80;99.90
7192;DHT22;3637;51.494;11.958;2023-04-25T09:08:29;9.20;99.90
7192;DHT22;3637;51.494;11.958;2023-04-25T09:11:32;9.30;99.90
7192;DHT22;3637;51.494;11.958;2023-04-25T09:14:35;11.00;99.90
7192;DHT22;3637;51.494;11.958;2023-04-25T09:17:37;10.30;99.90
7192;DHT22;3637;51.494;11.958;2023-04-25T09:20:42;10.30;99.90
7192;DHT22;3637;51.494;11.958;2023-04-25T09:23:45;9.90;99.90
7192;DHT22;3637;51.494;11.958;2023-04-25T09:26:47;9.30;99.90
7192;DHT22;3637;51.494;11.958;2023-04-25T09:29:58;9.60;99.90
7192;DHT22;3637;51.494;11.958;2023-04-25T09:33:05;9.50;99.90
7192;DHT22;3637;51.494;11.958;2023-04-25T09:36:09;10.70;99.90
7192;DHT22;3637;51.494;11.958;2023-04-25T09:39:13;10.10;99.90
7192;DHT22;3637;51.494;11.958;2023-04-25T09:42:17;9.90;99.90
7192;DHT22;3637;51.494;11.958;2023-04-25T09:45:20;10.00;99.90
7192;DHT22;3637;51.494;11.958;2023-04-25T09:48:24;10.00;99.90
7192;DHT22;3637;51.494;11.958;2023-04-25T09:51:26;10.80;99.90
7192;DHT22;3637;51.494;11.958;2023-04-25T09:54:28;10.70;99.90
7192;DHT22;3637;51.494;11.958;2023-04-25T09:57:30;10.10;99.90
7192;DHT22;3637;51.494;11.958;2023-04-25T10:00:33;9.60;99.90
7192;DHT22;3637;51.494;11.958;2023-04-25T10:03:37;10.00;99.90
7192;DHT22;3637;51.494;11.958;2023-04-25T10:06:41;10.70;99.90
7192;DHT22;3637;51.494;11.958;2023-04-25T10:09:47;9.60;99.90
7192;DHT22;3637;51.494;11.958;2023-04-25T10:12:50;10.80;99.90
7192;DHT22;3637;51.494;11.958;2023-04-25T10:15:53;10.10;99.90
7192;DHT22;3637;51.494;11.958;2023-04-25T10:18:55;10.40;99.90
7192;DHT22;3637;51.494;11.958;2023-04-25T10:22:06;10.00;99.90
7192;DHT22;3637;51.494;11.958;2023-04-25T10:25:09;10.00;99.90
7192;DHT22;3637;51.494;11.958;2023-04-25T10:28:11;9.90;99.90
7192;DHT22;3637;51.494;11.958;2023-04-25T10:31:16;9.30;99.90
7192;DHT22;3637;51.494;11.958;2023-04-25T10:34:18;9.90;99.90
7192;DHT22;3637;51.494;11.958;2023-04-25T10:37:20;10.10;99.90
7192;DHT22;3637;51.494;11.958;2023-04-25T10:40:22;9.80;99.90
7192;DHT22;3637;51.494;11.958;2023-04-25T10:43:34;9.80;99.90
7192;DHT22;3637;51.494;11.958;2023-04-25T10:46:38;10.80;99.90
7192;DHT22;3637;51.494;11.958;2023-04-25T10:49:41;9.80;99.90
7192;DHT22;3637;51.494;11.958;2023-04-25T10:52:44;10.20;99.90
7192;DHT22;3637;51.494;11.958;2023-04-25T10:55:52;9.90;99.90
7192;DHT22;3637;51.494;11.958;2023-04-25T10:59:07;9.80;99.10
7192;DHT22;3637;51.494;11.958;2023-04-25T11:02:12;9.80;99.60
7192;DHT22;3637;51.494;11.958;2023-04-25T11:05:23;10.50;98.50
7192;DHT22;3637;51.494;11.958;2023-04-25T11:08:38;10.00;98.10
7192;DHT22;3637;51.494;11.958;2023-04-25T11:11:53;10.00;97.70
7192;DHT22;3637;51.494;11.958;2023-04-25T11:14:59;10.10;97.60
7192;DHT22;3637;51.494;11.958;2023-04-25T11:18:03;10.10;96.90
7192;DHT22;3637;51.494;11.958;2023-04-25T11:21:06;10.20;97.00
7192;DHT22;3637;51.494;11.958;2023-04-25T11:24:09;10.60;96.30
7192;DHT22;3637;51.494;11.958;2023-04-25T11:27:12;10.40;96.00
7192;DHT22;3637;51.494;11.958;2023-04-25T11:30:15;10.90;96.60
7192;DHT22;3637;51.494;11.958;2023-04-25T11:33:23;10.70;95.90
7192;DHT22;3637;51.494;11.958;2023-04-25T11:36:25;11.30;95.80
7192;DHT22;3637;51.494;11.958;2023-04-25T11:39:28;11.10;95.10
7192;DHT22;3637;51.494;11.958;2023-04-25T11:42:30;10.50;95.20
7192;DHT22;3637;51.494;11.958;2023-04-25T11:45:32;10.50;95.30
7192;DHT22;3637;51.494;11.958;2023-04-25T11:48:38;10.30;94.60
7192;DHT22;3637;51.494;11.958;2023-04-25T11:51:40;10.20;94.50
7192;DHT22;3637;51.494;11.958;2023-04-25T11:54:44;10.20;94.60
7192;DHT22;3637;51.494;11.958;2023-04-25T11:57:48;10.60;94.10
7192;DHT22;3637;51.494;11.958;2023-04-25T12:00:50;10.00;94.60
7192;DHT22;3637;51.494;11.958;2023-04-25T12:03:53;10.00;94.70
7192;DHT22;3637;51.494;11.958;2023-04-25T12:06:55;10.60;94.00
7192;DHT22;3637;51.494;11.958;2023-04-25T12:09:57;10.00;92.90
7192;DHT22;3637;51.494;11.958;2023-04-25T12:12:59;9.80;93.00
7192;DHT22;3637;51.494;11.958;2023-04-25T12:16:00;9.90;92.20
7192;DHT22;3637;51.494;11.958;2023-04-25T12:19:04;9.90;92.30
7192;DHT22;3637;51.494;11.958;2023-04-25T12:22:20;10.60;91.80
7192;DHT22;3637;51.494;11.958;2023-04-25T12:25:35;10.00;90.70
7192;DHT22;3637;51.494;11.958;2023-04-25T12:28:37;10.00;90.00
7192;DHT22;3637;51.494;11.958;2023-04-25T12:31:39;10.00;89.70
7192;DHT22;3637;51.494;11.958;2023-04-25T12:34:42;10.10;88.90
7192;DHT22;3637;51.494;11.958;2023-04-25T12:37:44;10.10;88.60
7192;DHT22;3637;51.494;11.958;2023-04-25T12:40:46;10.50;88.80
7192;DHT22;3637;51.494;11.958;2023-04-25T12:43:48;10.20;89.10
7192;DHT22;3637;51.494;11.958;2023-04-25T12:46:49;10.30;88.80
7192;DHT22;3637;51.494;11.958;2023-04-25T12:49:52;10.30;88.10
7192;DHT22;3637;51.494;11.958;2023-04-25T12:52:54;10.40;88.60
7192;DHT22;3637;51.494;11.958;2023-04-25T12:55:56;10.80;88.80
7192;DHT22;3637;51.494;11.958;2023-04-25T12:58:58;11.40;89.60
7192;DHT22;3637;51.494;11.958;2023-04-25T13:02:00;11.00;88.50
7192;DHT22;3637;51.494;11.958;2023-04-25T13:05:04;11.60;88.10
7192;DHT22;3637;51.494;11.958;2023-04-25T13:08:06;11.00;85.70
7192;DHT22;3637;51.494;11.958;2023-04-25T13:11:08;11.20;85.40
7192;DHT22;3637;51.494;11.958;2023-04-25T13:14:10;11.90;85.50
7192;DHT22;3637;51.494;11.958;2023-04-25T13:17:12;11.90;85.50
7192;DHT22;3637;51.494;11.958;2023-04-25T13:20:15;11.40;84.50
7192;DHT22;3637;51.494;11.958;2023-04-25T13:23:19;11.00;81.00
7192;DHT22;3637;51.494;11.958;2023-04-25T13:26:21;11.20;76.40
7192;DHT22;3637;51.494;11.958;2023-04-25T13:29:23;11.00;75.50
7192;DHT22;3637;51.494;11.958;2023-04-25T13:32:25;10.90;76.50
7192;DHT22;3637;51.494;11.958;2023-04-25T13:35:29;10.80;77.30
7192;DHT22;3637;51.494;11.958;2023-04-25T13:38:31;11.10;77.40
7192;DHT22;3637;51.494;11.958;2023-04-25T13:41:32;10.70;79.10
7192;DHT22;3637;51.494;11.958;2023-04-25T13:44:35;10.90;78.60
7192;DHT22;3637;51.494;11.958;2023-04-25T13:47:37;10.90;79.30
7192;DHT22;3637;51.494;11.958;2023-04-25T13:50:40;11.90;78.30
7192;DHT22;3637;51.494;11.958;2023-04-25T13:53:42;11.10;77.00
7192;DHT22;3637;51.494;11.958;2023-04-25T13:56:43;11.00;76.50
7192;DHT22;3637;51.494;11.958;2023-04-25T13:59:46;12.20;75.40
7192;DHT22;3637;51.494;11.958;2023-04-25T14:02:48;10.40;72.90
7192;DHT22;3637;51.494;11.958;2023-04-25T14:05:51;11.00;73.70
7192;DHT22;3637;51.494;11.958;2023-04-25T14:08:53;11.00;74.90
7192;DHT22;3637;51.494;11.958;2023-04-25T14:11:55;11.10;74.60
7192;DHT22;3637;51.494;11.958;2023-04-25T14:14:59;11.10;75.10
7192;DHT22;3637;51.494;11.958;2023-04-25T14:18:02;11.60;75.40
7192;DHT22;3637;51.494;11.958;2023-04-25T14:21:05;11.90;78.20
7192;DHT22;3637;51.494;11.958;2023-04-25T14:24:07;10.90;80.40
7192;DHT22;3637;51.494;11.958;2023-04-25T14:27:09;11.00;81.80
7192;DHT22;3637;51.494;11.958;2023-04-25T14:30:12;11.00;83.00
7192;DHT22;3637;51.494;11.958;2023-04-25T14:33:14;10.70;83.60
7192;DHT22;3637;51.494;11.958;2023-04-25T14:36:17;10.60;83.40
7192;DHT22;3637;51.494;11.958;2023-04-25T14:39:20;11.10;84.00
7192;DHT22;3637;51.494;11.958;2023-04-25T14:42:22;10.70;82.00
7192;DHT22;3637;51.494;11.958;2023-04-25T14:45:24;10.60;82.30
7192;DHT22;3637;51.494;11.958;2023-04-25T14:48:26;10.70;82.40
7192;DHT22;3637;51.494;11.958;2023-04-25T14:51:29;11.30;82.60
7192;DHT22;3637;51.494;11.958;2023-04-25T14:54:31;11.10;81.10
7192;DHT22;3637;51.494;11.958;2023-04-25T14:57:33;10.50;80.70
7192;DHT22;3637;51.494;11.958;2023-04-25T15:00:35;10.50;82.00
7192;DHT22;3637;51.494;11.958;2023-04-25T15:03:37;11.20;82.20
7192;DHT22;3637;51.494;11.958;2023-04-25T15:06:40;11.00;82.00
7192;DHT22;3637;51.494;11.958;2023-04-25T15:09:42;10.50;81.70
7192;DHT22;3637;51.494;11.958;2023-04-25T15:12:44;10.70;81.80
7192;DHT22;3637;51.494;11.958;2023-04-25T15:15:46;10.70;82.70
7192;DHT22;3637;51.494;11.958;2023-04-25T15:18:54;10.60;83.10
7192;DHT22;3637;51.494;11.958;2023-04-25T15:21:59;10.50;83.30
7192;DHT22;3637;51.494;11.958;2023-04-25T15:25:02;10.80;84.50
7192;DHT22;3637;51.494;11.958;2023-04-25T15:28:04;10.60;84.40
7192;DHT22;3637;51.494;11.958;2023-04-25T15:31:06;10.60;85.00
7192;DHT22;3637;51.494;11.958;2023-04-25T15:34:07;10.20;86.00
7192;DHT22;3637;51.494;11.958;2023-04-25T15:37:11;10.20;86.90
7192;DHT22;3637;51.494;11.958;2023-04-25T15:40:15;10.20;86.40
7192;DHT22;3637;51.494;11.958;2023-04-25T15:43:17;10.30;87.00
7192;DHT22;3637;51.494;11.958;2023-04-25T15:46:19;10.10;88.00
7192;DHT22;3637;51.494;11.958;2023-04-25T15:49:21;10.60;91.90
7192;DHT22;3637;51.494;11.958;2023-04-25T15:52:24;10.90;88.80
7192;DHT22;3637;51.494;11.958;2023-04-25T15:55:27;9.90;89.30
7192;DHT22;3637;51.494;11.958;2023-04-25T15:58:28;10.60;90.20
7192;DHT22;3637;51.494;11.958;2023-04-25T16:01:30;9.80;90.00
7192;DHT22;3637;51.494;11.958;2023-04-25T16:04:32;10.50;91.10
7192;DHT22;3637;51.494;11.958;2023-04-25T16:07:36;10.40;91.10
7192;DHT22;3637;51.494;11.958;2023-04-25T16:10:38;9.90;91.50
7192;DHT22;3637;51.494;11.958;2023-04-25T16:13:40;11.10;91.20
7192;DHT22;3637;51.494;11.958;2023-04-25T16:16:42;9.70;90.90
7192;DHT22;3637;51.494;11.958;2023-04-25T16:19:44;9.70;91.10
7192;DHT22;3637;51.494;11.958;2023-04-25T16:22:47;10.90;91.70
7192;DHT22;3637;51.494;11.958;2023-04-25T16:25:49;10.90;92.10
7192;DHT22;3637;51.494;11.958;2023-04-25T16:28:51;9.80;91.60
7192;DHT22;3637;51.494;11.958;2023-04-25T16:31:53;9.90;91.60
7192;DHT22;3637;51.494;11.958;2023-04-25T16:34:54;10.00;91.40
7192;DHT22;3637;51.494;11.958;2023-04-25T16:37:58;11.00;91.50
7192;DHT22;3637;51.494;11.958;2023-04-25T16:41:00;10.60;90.60
7192;DHT22;3637;51.494;11.958;2023-04-25T16:44:01;9.90;90.20
7192;DHT22;3637;51.494;11.958;2023-04-25T16:47:06;9.90;89.70
7192;DHT22;3637;51.494;11.958;2023-04-25T16:50:08;10.20;90.10
7192;DHT22;3637;51.494;11.958;2023-04-25T16:53:11;9.90;90.10
7192;DHT22;3637;51.494;11.958;2023-04-25T16:56:13;11.10;90.70
7192;DHT22;3637;51.494;11.958;2023-04-25T16:59:15;9.90;90.40
7192;DHT22;3637;51.494;11.958;2023-04-25T17:02:17;10.60;90.70
7192;DHT22;3637;51.494;11.958;2023-04-25T17:05:19;10.00;90.90
7192;DHT22;3637;51.494;11.958;2023-04-25T17:08:22;9.80;90.90
7192;DHT22;3637;51.494;11.958;2023-04-25T17:11:24;10.00;91.20
7192;DHT22;3637;51.494;11.958;2023-04-25T17:14:26;9.90;90.50
7192;DHT22;3637;51.494;11.958;2023-04-25T17:17:28;10.00;90.60
7192;DHT22;3637;51.494;11.958;2023-04-25T17:20:30;10.50;89.90
7192;DHT22;3637;51.494;11.958;2023-04-25T17:23:33;10.00;90.10
7192;DHT22;3637;51.494;11.958;2023-04-25T17:26:35;11.10;89.70
7192;DHT22;3637;51.494;11.958;2023-04-25T17:29:37;10.00;90.00
7192;DHT22;3637;51.494;11.958;2023-04-25T17:32:39;10.20;90.00
7192;DHT22;3637;51.494;11.958;2023-04-25T17:35:40;9.80;90.10
7192;DHT22;3637;51.494;11.958;2023-04-25T17:38:44;9.70;89.60
7192;DHT22;3637;51.494;11.958;2023-04-25T17:41:46;9.70;89.60
7192;DHT22;3637;51.494;11.958;2023-04-25T17:44:48;9.80;90.00
7192;DHT22;3637;51.494;11.958;2023-04-25T17:47:50;9.60;90.20
7192;DHT22;3637;51.494;11.958;2023-04-25T17:50:52;9.60;90.30
7192;DHT22;3637;51.494;11.958;2023-04-25T17:53:57;8.80;90.50
7192;DHT22;3637;51.494;11.958;2023-04-25T17:56:58;9.50;90.80
7192;DHT22;3637;51.494;11.958;2023-04-25T18:00:00;9.50;90.70
7192;DHT22;3637;51.494;11.958;2023-04-25T18:03:03;9.50;90.80
7192;DHT22;3637;51.494;11.958;2023-04-25T18:06:05;10.00;91.20
7192;DHT22;3637;51.494;11.958;2023-04-25T18:09:08;9.40;91.10
7192;DHT22;3637;51.494;11.958;2023-04-25T18:12:16;9.30;91.30
7192;DHT22;3637;51.494;11.958;2023-04-25T18:15:18;9.30;91.50
7192;DHT22;3637;51.494;11.958;2023-04-25T18:18:21;9.00;91.70
7192;DHT22;3637;51.494;11.958;2023-04-25T18:21:27;9.60;92.10
7192;DHT22;3637;51.494;11.958;2023-04-25T18:24:30;9.20;92.20
7192;DHT22;3637;51.494;11.958;2023-04-25T18:27:32;9.20;92.40
7192;DHT22;3637;51.494;11.958;2023-04-25T18:30:34;9.80;92.60
7192;DHT22;3637;51.494;11.958;2023-04-25T18:33:37;9.00;92.60
7192;DHT22;3637;51.494;11.958;2023-04-25T18:36:39;9.00;93.00
7192;DHT22;3637;51.494;11.958;2023-04-25T18:39:42;8.80;93.20
7192;DHT22;3637;51.494;11.958;2023-04-25T18:42:44;8.80;93.60
7192;DHT22;3637;51.494;11.958;2023-04-25T18:45:46;9.70;94.30
7192;DHT22;3637;51.494;11.958;2023-04-25T18:48:49;8.80;94.40
7192;DHT22;3637;51.494;11.958;2023-04-25T18:51:50;9.60;94.70
7192;DHT22;3637;51.494;11.958;2023-04-25T18:54:56;8.70;94.00
7192;DHT22;3637;51.494;11.958;2023-04-25T18:57:58;8.90;94.10
7192;DHT22;3637;51.494;11.958;2023-04-25T19:01:00;8.70;93.70
7192;DHT22;3637;51.494;11.958;2023-04-25T19:04:03;8.70;93.80
7192;DHT22;3637;51.494;11.958;2023-04-25T19:07:05;8.90;93.70
7192;DHT22;3637;51.494;11.958;2023-04-25T19:10:09;8.60;93.80
7192;DHT22;3637;51.494;11.958;2023-04-25T19:13:12;8.60;94.00
7192;DHT22;3637;51.494;11.958;2023-04-25T19:16:14;8.60;94.30
7192;DHT22;3637;51.494;11.958;2023-04-25T19:19:16;8.50;94.40
7192;DHT22;3637;51.494;11.958;2023-04-25T19:22:19;9.00;94.70
7192;DHT22;3637;51.494;11.958;2023-04-25T19:25:22;8.50;95.10
7192;DHT22;3637;51.494;11.958;2023-04-25T19:28:24;9.30;95.60
7192;DHT22;3637;51.494;11.958;2023-04-25T19:31:26;8.90;96.00
7192;DHT22;3637;51.494;11.958;2023-04-25T19:34:28;8.70;96.40
7192;DHT22;3637;51.494;11.958;2023-04-25T19:37:30;8.60;96.40
7192;DHT22;3637;51.494;11.958;2023-04-25T19:40:34;8.80;96.70
7192;DHT22;3637;51.494;11.958;2023-04-25T19:43:36;8.40;97.10
7192;DHT22;3637;51.494;11.958;2023-04-25T19:46:38;8.40;97.50